KSSC/SSC METAR and TAF weather

Enter ICAO airport designator
Station Type Date Time Source
KSSC METAR 2020/04/05 06:06 UTC NOAA

KSSC 050606Z AUTO 05003KT 2 3/4SM HZ CLR 11/07 A3000 RMK AO2 SLP159 $


Station Type Date Time Source
KSSC Decoded METAR 2020/04/05 06:06 UTC NOAA

Shaw Air Force Base, SC, United States (KSSC) 33-58N 080-29W 73M
Apr 05, 2020 - 02:06 AM EDT / 2020.04.05 0606 UTC
Wind: from the NE (050 degrees) at 3 MPH (3 KT):0
Visibility: 2 3/4 mile(s):0
Sky conditions: clear
Weather: haze
Temperature: 51 F (11 C)
Dew Point: 44 F (7 C)
Relative Humidity: 76%
Pressure (altimeter): 30 in. Hg (1015 hPa)
ob: KSSC 050606Z AUTO 05003KT 2 3/4SM HZ CLR 11/07 A3000 RMK AO2 SLP159
cycle: 6

Station Type Date Time Source
KSSC TAF 2020/04/03 19:52 UTC NOAA

TAF
AMD KSSC 031935Z 0319/0421 30010G15KT 9999 SKC QNH2988INS
BECMG 0321/0322 27009KT 9999 SKC QNH2988INS
BECMG 0322/0323 27009KT 9999 FEW110 QNH2988INS
BECMG 0414/0415 03010G15KT 9999 FEW110 BKN130 QNH2992INS TX25/0321Z TN07/0411Z LAST NO
AMDS AFT 0319 NEXT 0607

Example: see airport list